createdAt,value
2023-04-02T05:38:51.820Z,94369.53
2023-04-02T05:41:18.247Z,94367.56
2023-04-02T05:43:44.630Z,94373.63
2023-04-02T05:46:11.039Z,94372.66
2023-04-02T05:48:37.700Z,94370.44
2023-04-02T05:51:04.132Z,94377.38
2023-04-02T05:53:30.518Z,94380.59
2023-04-02T05:55:59.375Z,94389.19
2023-04-02T06:00:55.414Z,94382.28
2023-04-02T06:03:21.950Z,94390.19
2023-04-02T06:05:49.811Z,94388.78
2023-04-02T06:08:16.145Z,94393.44
2023-04-02T06:10:42.473Z,94394.25
2023-04-02T06:13:09.183Z,94396.31
2023-04-02T06:15:38.863Z,94401.09
2023-04-02T06:18:05.412Z,94396.31
2023-04-02T06:20:31.925Z,94400.91
2023-04-02T06:22:58.322Z,94400.69
2023-04-02T06:25:24.645Z,94396.22
2023-04-02T06:27:53.694Z,94400.16
2023-04-02T06:30:22.511Z,94405.38
2023-04-02T06:32:49.195Z,94408.00
2023-04-02T06:35:15.602Z,94409.00
2023-04-02T06:37:41.998Z,94412.19
2023-04-02T06:40:09.237Z,94405.50
2023-04-02T06:42:35.717Z,94414.09
2023-04-02T06:45:03.836Z,94411.91
2023-04-02T06:47:30.222Z,94418.59
2023-04-02T06:49:56.688Z,94420.19
2023-04-02T06:52:23.114Z,94420.72
2023-04-02T06:54:49.558Z,94428.06
2023-04-02T06:57:16.139Z,94427.53
2023-04-02T06:59:42.709Z,94435.81
2023-04-02T07:02:09.105Z,94433.19
2023-04-02T07:04:37.913Z,94435.16
2023-04-02T07:09:45.629Z,94442.91
2023-04-02T07:12:12.505Z,94448.09
2023-04-02T07:14:38.878Z,94444.78
2023-04-02T07:17:07.380Z,94443.69
2023-04-02T07:19:33.756Z,94451.53
2023-04-02T07:22:01.224Z,94453.13
2023-04-02T07:24:27.654Z,94455.03
2023-04-02T07:26:54.170Z,94453.13
2023-04-02T07:29:20.637Z,94454.41
2023-04-02T07:31:47.344Z,94464.63
2023-04-02T07:34:15.952Z,94463.25
2023-04-02T07:36:42.381Z,94468.53
2023-04-02T07:39:08.776Z,94467.53
2023-04-02T07:41:35.339Z,94469.69
2023-04-02T07:44:01.819Z,94471.06
2023-04-02T07:46:28.297Z,94477.88
2023-04-02T07:48:54.678Z,94474.03
2023-04-02T07:51:21.062Z,94468.59
2023-04-02T07:53:47.503Z,94475.16
2023-04-02T07:56:13.906Z,94481.34
2023-04-02T07:58:40.394Z,94480.81
2023-04-02T08:01:06.867Z,94472.38
2023-04-02T08:03:33.716Z,94473.19
2023-04-02T08:06:00.404Z,94475.75
2023-04-02T08:08:29.068Z,94475.47
2023-04-02T08:21:38.333Z,94488.13
2023-04-02T08:24:05.233Z,94488.31
2023-04-02T08:26:31.842Z,94493.88
2023-04-02T08:28:58.372Z,94486.84
2023-04-02T08:31:25.238Z,94503.34
2023-04-02T08:33:51.785Z,94507.41
2023-04-02T08:36:23.588Z,94507.25
2023-04-02T08:38:50.055Z,94506.06
2023-04-02T08:41:16.672Z,94508.22
2023-04-02T08:43:43.236Z,94505.97
2023-04-02T08:46:09.837Z,94513.91
2023-04-02T08:48:36.282Z,94517.00
2023-04-02T08:51:02.706Z,94514.69
2023-04-02T08:53:29.143Z,94520.41
2023-04-02T08:55:55.518Z,94513.72
2023-04-02T08:58:24.230Z,94520.63
2023-04-02T09:00:50.637Z,94517.41
2023-04-02T09:03:18.151Z,94526.34
2023-04-02T13:19:43.326Z,94660.09
2023-04-02T13:22:09.957Z,94660.78
2023-04-02T13:24:36.525Z,94651.91
2023-04-02T13:27:03.028Z,94664.97
2023-04-02T13:29:29.410Z,94659.34
2023-04-02T13:31:55.928Z,94656.56
2023-04-02T13:34:23.458Z,94653.44
2023-04-02T13:36:49.822Z,94656.72
2023-04-02T13:41:56.464Z,94654.97
2023-04-02T13:44:22.920Z,94655.44
2023-04-02T13:46:49.552Z,94663.31
2023-04-02T13:49:16.013Z,94661.03
2023-04-02T13:51:42.552Z,94662.81
2023-04-02T13:54:09.040Z,94663.50
2023-04-02T13:56:35.526Z,94658.59
2023-04-02T13:59:01.987Z,94656.97
2023-04-02T14:01:28.364Z,94663.50
2023-04-02T14:03:54.860Z,94662.09
2023-04-02T14:06:22.415Z,94665.44
2023-04-02T14:08:48.834Z,94664.78
2023-04-02T14:11:15.424Z,94656.47
2023-04-02T14:13:41.918Z,94659.16
2023-04-02T14:16:10.578Z,94661.19
2023-04-02T14:18:37.021Z,94668.38
2023-04-02T14:21:03.427Z,94669.50
2023-04-02T14:23:29.929Z,94673.75
2023-04-02T14:25:56.545Z,94681.22
2023-04-02T14:28:22.907Z,94680.31
2023-04-02T14:30:49.288Z,94678.56
2023-04-02T14:33:15.890Z,94680.34
2023-04-02T14:35:42.492Z,94681.19
2023-04-02T14:38:08.913Z,94677.41
2023-04-02T14:40:35.520Z,94680.34
2023-04-02T14:43:02.084Z,94683.28
2023-04-02T14:45:28.639Z,94683.91
2023-04-02T14:47:55.166Z,94690.41
2023-04-02T14:50:21.645Z,94680.00
2023-04-02T14:52:48.143Z,94680.41
2023-04-02T14:55:14.505Z,94687.19
2023-04-02T14:57:40.912Z,94687.88
2023-04-02T15:00:07.407Z,94685.31
2023-04-02T15:02:33.891Z,94684.50
2023-04-02T15:05:01.548Z,94688.88
2023-04-02T15:07:28.351Z,94694.41
2023-04-02T15:09:55.555Z,94694.88
2023-04-02T15:12:22.124Z,94698.16
2023-04-02T15:14:50.153Z,94694.63
2023-04-02T15:17:16.952Z,94690.38
2023-04-02T15:19:43.408Z,94687.59
2023-04-02T15:22:10.043Z,94692.28
2023-04-02T15:24:36.624Z,94687.22
2023-04-02T15:27:05.365Z,94693.13
2023-04-02T15:29:35.843Z,94697.66
2023-04-02T15:32:02.313Z,94696.03
2023-04-02T15:34:28.782Z,94694.41
2023-04-02T15:36:55.888Z,94695.69
2023-04-02T15:39:22.328Z,94693.28
2023-04-02T15:41:49.749Z,94691.38
2023-04-02T15:44:16.579Z,94699.81
2023-04-02T15:46:43.226Z,94695.22
2023-04-02T15:49:10.080Z,94698.75
2023-04-02T15:51:36.506Z,94694.56
2023-04-02T15:54:04.219Z,94689.59
2023-04-02T15:56:30.718Z,94702.75
2023-04-02T15:58:57.273Z,94711.66
2023-04-02T16:01:23.934Z,94710.63
2023-04-02T16:03:51.242Z,94708.41
2023-04-02T16:06:18.030Z,94715.66
2023-04-02T16:08:44.415Z,94712.38
2023-04-02T16:11:10.849Z,94719.88
2023-04-02T16:13:41.542Z,94717.59
2023-04-02T16:16:09.012Z,94722.63
2023-04-02T16:18:35.720Z,94728.25
2023-04-02T16:21:02.183Z,94729.56
2023-04-02T16:23:29.147Z,94731.97
2023-04-02T16:25:57.783Z,94732.75
2023-04-02T16:28:24.336Z,94730.03
2023-04-02T16:30:51.390Z,94735.59
2023-04-02T16:33:17.763Z,94735.25
2023-04-02T16:35:44.660Z,94742.94
2023-04-02T16:38:12.115Z,94745.78
2023-04-02T16:40:39.233Z,94741.56
2023-04-02T16:43:05.567Z,94744.56
2023-04-02T16:45:32.073Z,94751.41
2023-04-02T16:47:58.717Z,94758.44
2023-04-02T16:50:25.948Z,94753.53
2023-04-02T16:52:53.192Z,94762.25
2023-04-02T16:55:19.910Z,94759.00
2023-04-02T16:57:46.628Z,94765.75
2023-04-02T17:00:13.031Z,94769.78
2023-04-02T17:02:39.641Z,94769.13
2023-04-02T17:05:08.535Z,94771.22
2023-04-02T17:07:35.354Z,94765.72
2023-04-02T17:10:02.383Z,94773.47
2023-04-02T17:12:28.869Z,94779.31
2023-04-02T17:14:55.445Z,94779.31
2023-04-02T17:17:21.972Z,94790.66
2023-04-02T17:20:04.897Z,94795.72
2023-04-02T17:22:32.003Z,94793.97
2023-04-02T17:24:58.928Z,94802.78
2023-04-02T17:27:26.472Z,94813.81
2023-04-02T17:29:58.421Z,94810.72
2023-04-02T17:32:25.185Z,94820.75
2023-04-02T17:34:54.802Z,94818.44
2023-04-02T17:37:21.333Z,94826.94
2023-04-02T17:39:48.108Z,94825.66
2023-04-02T17:42:14.616Z,94837.63
2023-04-02T17:44:40.966Z,94835.97
2023-04-02T17:47:08.994Z,94834.16
2023-04-02T17:49:35.685Z,94843.09
2023-04-02T17:52:02.270Z,94840.38
2023-04-02T17:54:29.041Z,94842.34
2023-04-02T17:56:57.976Z,94847.00
2023-04-02T17:59:24.657Z,94850.63
2023-04-02T18:01:51.167Z,94852.38
2023-04-02T18:04:18.167Z,94859.47
2023-04-02T18:06:44.657Z,94854.38
2023-04-02T18:09:11.196Z,94861.97
2023-04-02T18:11:40.511Z,94859.38
2023-04-02T18:14:07.277Z,94866.63
2023-04-02T18:16:33.951Z,94866.72
2023-04-02T18:19:01.269Z,94864.41
2023-04-02T18:21:27.753Z,94871.22
2023-04-02T18:23:54.256Z,94874.91
2023-04-02T18:26:21.221Z,94870.97
2023-04-02T18:28:49.042Z,94870.50
2023-04-02T18:31:15.650Z,94878.25
2023-04-02T18:33:42.535Z,94886.16
2023-04-02T18:36:09.303Z,94887.97
2023-04-02T18:38:35.992Z,94888.97
2023-04-02T18:41:03.202Z,94888.97
2023-04-02T18:43:30.805Z,94894.06
2023-04-02T18:45:57.631Z,94892.38
2023-04-02T18:48:24.259Z,94902.28
2023-04-02T18:50:50.824Z,94901.19
2023-04-02T18:53:18.212Z,94909.94
2023-04-02T18:55:45.020Z,94910.94
2023-04-02T18:58:12.385Z,94917.19
2023-04-02T19:00:39.391Z,94911.28
2023-04-02T19:03:05.855Z,94912.63
2023-04-02T19:05:33.187Z,94915.09
2023-04-02T19:07:59.599Z,94918.41
2023-04-02T19:10:26.078Z,94922.38
2023-04-02T19:12:52.752Z,94922.56
2023-04-02T19:15:19.203Z,94931.09
2023-04-02T19:17:45.970Z,94930.72
2023-04-02T19:20:21.415Z,94935.56
2023-04-02T19:22:56.380Z,94939.56
2023-04-02T19:25:24.253Z,94949.44
2023-04-02T19:27:52.639Z,94942.53
2023-04-02T19:30:19.121Z,94944.34
2023-04-02T19:32:45.659Z,94942.69
2023-04-02T19:35:12.637Z,94952.25
2023-04-02T19:37:39.068Z,94950.44
2023-04-02T19:40:06.010Z,94951.75
2023-04-02T19:42:35.120Z,94955.84
2023-04-02T19:45:01.521Z,94957.16
2023-04-02T19:47:30.192Z,94961.47
2023-04-02T19:49:56.818Z,94961.47
2023-04-02T19:52:23.495Z,94963.09
2023-04-02T19:54:50.140Z,94964.75
2023-04-02T19:57:16.821Z,94965.41
2023-04-02T19:59:44.734Z,94971.34
2023-04-02T20:02:12.312Z,94973.97
2023-04-02T20:04:38.815Z,94974.81
2023-04-02T20:07:05.365Z,94975.63
2023-04-02T20:09:33.323Z,94972.97
2023-04-02T20:12:00.125Z,94979.25
2023-04-02T20:14:26.666Z,94981.06
2023-04-02T20:16:53.254Z,94981.91
2023-04-02T20:19:21.139Z,94980.25
2023-04-02T20:21:47.638Z,94984.72
2023-04-02T20:24:14.452Z,94991.97
2023-04-02T20:26:42.389Z,94982.56
2023-04-02T20:29:08.953Z,94981.56
2023-04-02T20:31:40.121Z,94987.00
2023-04-02T20:34:07.574Z,94996.06
2023-04-02T20:36:35.947Z,94989.47
2023-04-02T20:39:03.677Z,95001.22
2023-04-02T20:41:30.857Z,94993.31
2023-04-02T20:43:57.287Z,95002.34
2023-04-02T20:46:23.825Z,95007.28
2023-04-02T20:48:51.353Z,95001.34
2023-04-02T20:53:59.394Z,95011.09
2023-04-02T20:56:26.819Z,95008.47
